Time;durP1;ratioP1;P1;durP2;ratioP2;P2;SDS_P1;SDS_P2;PMS_P1;PMS_P2;Temp;Humidity;BMP_temperature;BMP_pressure;BME280_temperature;BME280_humidity;BME280_pressure;Samples;Min_cycle;Max_cycle;Signal;HPM_P1;HPM_P2
2023/01/16 00:00:11;;;;;;;2.80;2.60;;;;;;;2.82;100.00;99493.47;10460222;28;20036;-64
2023/01/16 00:05:11;;;;;;;2.22;2.13;;;;;;;2.75;100.00;99489.88;10442480;28;20527;-62
2023/01/16 00:10:12;;;;;;;3.38;3.00;;;;;;;2.78;100.00;99473.47;10443747;28;20032;-62
2023/01/16 00:15:12;;;;;;;6.13;2.78;;;;;;;2.67;100.00;99449.84;10441900;28;20376;-62
2023/01/16 00:20:12;;;;;;;4.40;3.42;;;;;;;2.80;100.00;99447.38;10441809;28;20040;-66
2023/01/16 00:25:13;;;;;;;7.63;3.03;;;;;;;3.06;100.00;99452.28;10442593;28;20033;-63
2023/01/16 00:30:13;;;;;;;15.20;3.08;;;;;;;3.20;100.00;99434.59;10458670;28;20476;-63
2023/01/16 00:35:14;;;;;;;3.08;2.85;;;;;;;3.08;100.00;99439.56;10440408;28;20057;-63
2023/01/16 00:40:15;;;;;;;4.88;3.17;;;;;;;2.91;100.00;99412.19;10458763;28;20516;-62
2023/01/16 00:45:15;;;;;;;2.90;2.35;;;;;;;2.91;100.00;99414.84;10458719;28;20025;-63
2023/01/16 00:50:15;;;;;;;5.28;2.22;;;;;;;2.85;100.00;99404.91;10458976;28;20041;-63
2023/01/16 00:55:16;;;;;;;4.95;3.05;;;;;;;2.86;100.00;99390.50;10440406;28;20135;-64
2023/01/16 01:00:19;;;;;;;6.20;3.47;;;;;;;2.78;100.00;99364.72;10458539;28;20025;-63
2023/01/16 01:05:19;;;;;;;3.55;3.22;;;;;;;2.76;100.00;99364.06;10459650;28;20029;-62
2023/01/16 01:10:20;;;;;;;7.32;3.30;;;;;;;2.70;100.00;99353.28;10459329;28;20033;-63
2023/01/16 01:15:21;;;;;;;8.10;3.92;;;;;;;2.77;100.00;99340.81;10439868;28;20033;-63
2023/01/16 01:20:22;;;;;;;7.03;3.83;;;;;;;2.84;100.00;99333.75;10439686;28;20037;-63
2023/01/16 01:25:22;;;;;;;8.05;3.78;;;;;;;2.81;100.00;99323.41;10456620;28;20040;-62
2023/01/16 01:30:22;;;;;;;8.60;4.28;;;;;;;2.89;100.00;99315.28;10456436;28;20136;-62
2023/01/16 01:35:23;;;;;;;11.68;4.53;;;;;;;2.87;100.00;99295.94;10456906;28;20053;-62
2023/01/16 01:40:23;;;;;;;7.57;4.32;;;;;;;2.82;100.00;99276.94;10455804;28;20511;-63
2023/01/16 01:45:24;;;;;;;11.07;5.95;;;;;;;2.81;100.00;99269.97;10438926;28;20029;-63
2023/01/16 01:50:45;;;;;;;12.43;5.30;;;;;;;2.99;100.00;99250.81;10456630;28;20579;-63
2023/01/16 01:55:46;;;;;;;13.60;5.88;;;;;;;3.11;100.00;99249.28;10456309;28;20037;-62
2023/01/16 02:00:46;;;;;;;15.00;6.88;;;;;;;3.08;100.00;99230.13;10438568;28;20036;-63
2023/01/16 02:05:49;;;;;;;11.10;5.80;;;;;;;3.09;100.00;99229.09;10437874;28;20469;-63
2023/01/16 02:10:51;;;;;;;11.68;7.40;;;;;;;3.16;100.00;99230.84;10422024;28;20033;-63
2023/01/16 02:21:33;;;;;;;7.72;6.57;;;;;;;3.19;100.00;99216.25;10455739;28;20068;-63
2023/01/16 02:27:10;;;;;;;6.45;4.63;;;;;;;3.10;100.00;99209.38;10465021;28;20044;-63
2023/01/16 02:32:42;;;;;;;4.22;3.88;;;;;;;3.17;100.00;99178.19;10463442;28;20404;-63
2023/01/16 02:37:55;;;;;;;5.53;3.95;;;;;;;3.11;100.00;99178.94;10412203;28;20115;-63
2023/01/16 02:43:04;;;;;;;8.18;5.45;;;;;;;3.17;100.00;99162.94;10421309;28;20108;-63
2023/01/16 02:48:25;;;;;;;2.80;2.60;;;;;;;3.18;100.00;99147.72;10438222;28;20147;-63
2023/01/16 02:53:35;;;;;;;7.25;4.90;;;;;;;3.15;100.00;99122.19;10443723;28;20041;-63
2023/01/16 02:58:39;;;;;;;5.90;3.13;;;;;;;3.13;100.00;99110.88;10463264;28;20036;-63
2023/01/16 03:03:55;;;;;;;7.68;3.17;;;;;;;3.10;100.00;99099.75;10463216;28;20032;-62
2023/01/16 03:09:01;;;;;;;9.40;3.17;;;;;;;3.12;100.00;99086.97;10462651;28;20078;-63
2023/01/16 03:14:11;;;;;;;6.53;2.92;;;;;;;3.12;100.00;99079.78;10462568;28;20036;-63
2023/01/16 03:19:32;;;;;;;3.28;2.65;;;;;;;3.13;100.00;99064.59;10429183;28;20048;-64
2023/01/16 03:24:38;;;;;;;7.95;2.45;;;;;;;3.15;100.00;99051.81;10462314;28;20036;-64
2023/01/16 03:29:43;;;;;;;4.90;2.35;;;;;;;3.15;100.00;99038.44;10427489;28;20365;-63
2023/01/16 03:34:53;;;;;;;8.45;2.90;;;;;;;3.08;100.00;99032.25;10427389;28;20082;-64
2023/01/16 03:39:58;;;;;;;6.32;3.22;;;;;;;3.10;100.00;99006.97;10445400;28;20067;-62
2023/01/16 03:45:02;;;;;;;10.20;3.83;;;;;;;2.99;100.00;98989.59;10428488;28;20041;-63
2023/01/16 03:50:04;;;;;;;5.15;4.13;;;;;;;3.10;100.00;98976.72;10426529;28;20039;-63
2023/01/16 03:55:27;;;;;;;4.78;3.97;;;;;;;3.13;100.00;98947.72;10427409;28;20033;-63
2023/01/16 04:00:31;;;;;;;9.30;4.72;;;;;;;3.14;100.00;98936.00;10442709;28;20025;-63
2023/01/16 04:05:35;;;;;;;2.67;2.47;;;;;;;3.09;100.00;98922.38;10452859;28;20036;-64
2023/01/16 04:10:37;;;;;;;6.75;2.78;;;;;;;3.05;100.00;98902.44;10461214;28;20021;-64
2023/01/16 04:15:40;;;;;;;4.40;2.25;;;;;;;3.03;100.00;98894.63;10443773;28;20033;-63
2023/01/16 04:20:42;;;;;;;13.57;2.55;;;;;;;3.10;100.00;98873.25;10425840;28;20453;-63
2023/01/16 04:25:44;;;;;;;3.88;2.38;;;;;;;3.09;100.00;98849.38;10425118;28;20120;-63
2023/01/16 04:30:44;;;;;;;5.75;2.33;;;;;;;3.18;100.00;98842.81;10458405;28;20033;-63
2023/01/16 04:35:44;;;;;;;4.07;2.47;;;;;;;3.21;100.00;98826.38;10459055;28;20067;-64
2023/01/16 04:40:45;;;;;;;3.05;1.95;;;;;;;3.24;100.00;98810.75;10458641;28;20087;-63
2023/01/16 04:45:46;;;;;;;8.18;3.20;;;;;;;3.32;100.00;98783.00;10458986;28;20033;-64
2023/01/16 04:50:49;;;;;;;5.63;2.85;;;;;;;3.37;100.00;98759.13;10458277;28;20036;-62
2023/01/16 04:55:50;;;;;;;6.97;3.40;;;;;;;3.32;100.00;98748.22;10458578;28;20132;-63
2023/01/16 05:00:50;;;;;;;10.35;3.75;;;;;;;3.34;100.00;98721.25;10457889;28;20037;-64
2023/01/16 05:05:52;;;;;;;6.32;2.70;;;;;;;3.38;100.00;98701.94;10423573;28;20041;-64
2023/01/16 05:10:53;;;;;;;3.80;2.95;;;;;;;3.35;100.00;98682.78;10456950;28;20029;-63
2023/01/16 05:15:53;;;;;;;3.10;2.83;;;;;;;3.29;100.00;98671.06;10457380;28;20037;-64
2023/01/16 05:20:53;;;;;;;2.88;2.38;;;;;;;3.32;100.00;98645.72;10439336;28;20106;-62
2023/01/16 05:25:54;;;;;;;6.57;2.83;;;;;;;3.34;100.00;98631.13;10440220;28;20029;-62
2023/01/16 05:30:55;;;;;;;11.10;3.17;;;;;;;3.35;100.00;98608.72;10438512;28;20029;-63
2023/01/16 05:35:55;;;;;;;10.48;3.03;;;;;;;3.39;100.00;98607.28;10438630;28;20076;-62
2023/01/16 05:40:56;;;;;;;5.03;2.03;;;;;;;3.36;100.00;98596.97;10438708;28;20071;-64
2023/01/16 05:45:56;;;;;;;6.20;3.90;;;;;;;3.32;100.00;98586.88;10438757;28;20040;-63
2023/01/16 05:50:56;;;;;;;2.95;2.65;;;;;;;3.27;100.00;98568.78;10456737;28;20045;-62
2023/01/16 05:55:57;;;;;;;2.35;2.25;;;;;;;3.23;100.00;98556.88;10455799;28;20033;-63
2023/01/16 06:00:57;;;;;;;11.55;3.35;;;;;;;3.17;100.00;98547.81;10422023;28;20380;-62
2023/01/16 06:06:01;;;;;;;14.85;3.35;;;;;;;3.23;100.00;98538.97;10455632;28;20036;-61
2023/01/16 06:11:01;;;;;;;5.40;3.15;;;;;;;3.16;100.00;98511.44;10439589;28;20037;-61
2023/01/16 06:16:02;;;;;;;10.57;4.32;;;;;;;3.13;100.00;98517.19;10456689;28;20037;-62
2023/01/16 06:21:02;;;;;;;3.25;2.50;;;;;;;3.16;100.00;98483.84;10455766;28;20468;-62
2023/01/16 06:26:05;;;;;;;4.25;2.78;;;;;;;3.22;100.00;98480.31;10456707;28;20074;-62
2023/01/16 06:31:06;;;;;;;1.75;1.60;;;;;;;3.25;100.00;98463.88;10446233;28;20033;-63
2023/01/16 06:36:06;;;;;;;0.60;0.60;;;;;;;3.27;100.00;98445.75;10445829;28;20496;-63
2023/01/16 06:41:07;;;;;;;0.68;0.68;;;;;;;3.31;100.00;98424.75;10463237;28;20120;-64
2023/01/16 06:46:07;;;;;;;0.50;0.50;;;;;;;3.29;100.00;98410.75;10445386;28;20086;-63
2023/01/16 06:51:09;;;;;;;1.33;1.08;;;;;;;3.29;100.00;98408.94;10464445;28;20072;-64
2023/01/16 06:56:10;;;;;;;0.60;0.60;;;;;;;3.28;100.00;98385.06;10462181;28;20489;-63
2023/01/16 07:01:10;;;;;;;0.50;0.50;;;;;;;3.26;100.00;98354.00;10463279;28;20044;-63
2023/01/16 07:06:12;;;;;;;0.50;0.50;;;;;;;3.23;100.00;98350.94;10467873;28;20028;-64
2023/01/16 07:11:13;;;;;;;0.90;0.90;;;;;;;3.22;100.00;98326.06;10464303;28;20055;-63
2023/01/16 07:26:59;;;;;;;0.50;0.50;;;;;;;3.22;100.00;98258.34;10449032;28;20045;-63
2023/01/16 07:32:00;;;;;;;0.50;0.50;;;;;;;3.33;100.00;98238.97;10461900;28;20140;-63
2023/01/16 07:37:00;;;;;;;0.55;0.55;;;;;;;3.32;100.00;98234.66;10427318;28;20095;-63
2023/01/16 07:42:04;;;;;;;0.47;0.47;;;;;;;3.35;100.00;98230.72;10464698;28;20464;-63
2023/01/16 07:47:05;;;;;;;0.60;0.60;;;;;;;3.33;100.00;98198.84;10453146;28;20041;-63
2023/01/16 07:52:05;;;;;;;0.55;0.55;;;;;;;3.39;100.00;98200.66;10461359;28;20037;-64
2023/01/16 07:57:06;;;;;;;0.60;0.60;;;;;;;3.46;100.00;98189.91;10460581;28;20138;-62
2023/01/16 08:02:08;;;;;;;0.55;0.55;;;;;;;3.45;100.00;98169.53;10460157;28;20037;-64
2023/01/16 08:07:09;;;;;;;0.73;0.73;;;;;;;3.43;100.00;98160.91;10461017;28;20420;-63
2023/01/16 08:12:09;;;;;;;0.60;0.60;;;;;;;3.40;100.00;98170.19;10441925;28;20112;-63
2023/01/16 08:17:09;;;;;;;0.55;0.55;;;;;;;3.41;100.00;98153.06;10441990;28;20033;-63
2023/01/16 08:22:10;;;;;;;0.60;0.60;;;;;;;3.48;100.00;98145.84;10443238;28;20369;-63
2023/01/16 08:27:10;;;;;;;0.50;0.50;;;;;;;3.45;100.00;98132.09;10460166;28;20037;-62
2023/01/16 08:32:11;;;;;;;0.60;0.60;;;;;;;3.47;100.00;98127.31;10459473;28;20388;-63
2023/01/16 08:37:11;;;;;;;0.70;0.70;;;;;;;3.47;100.00;98128.13;10441290;28;20061;-63
2023/01/16 08:52:49;;;;;;;0.60;0.60;;;;;;;3.51;100.00;98075.03;10442283;28;20033;-64
2023/01/16 08:57:50;;;;;;;0.50;0.50;;;;;;;3.54;100.00;98071.88;10460640;28;20049;-64
2023/01/16 09:02:50;;;;;;;0.60;0.60;;;;;;;3.57;100.00;98075.97;10458604;28;20056;-63
2023/01/16 09:07:51;;;;;;;0.70;0.70;;;;;;;3.60;100.00;98059.47;10442641;28;20061;-64
2023/01/16 09:18:10;;;;;;;0.50;0.50;;;;;;;3.67;100.00;98036.13;10460144;28;20041;-63
2023/01/16 09:23:10;;;;;;;0.40;0.40;;;;;;;3.73;100.00;98037.91;10461137;28;20473;-63
2023/01/16 09:28:11;;;;;;;0.50;0.50;;;;;;;3.74;100.00;98020.84;10461899;28;20060;-63
2023/01/16 09:33:11;;;;;;;0.50;0.50;;;;;;;3.77;100.00;98011.56;10438360;28;20037;-63
2023/01/16 09:38:11;;;;;;;0.40;0.40;;;;;;;3.90;100.00;98009.50;10439274;28;20110;-62
2023/01/16 09:49:05;;;;;;;0.55;0.55;;;;;;;3.93;100.00;97993.00;10446929;28;20041;-64
2023/01/16 09:59:54;;;;;;;0.50;0.50;;;;;;;3.94;100.00;97983.91;10442681;28;20112;-63
2023/01/16 10:04:55;;;;;;;1.35;1.35;;;;;;;4.00;100.00;97971.50;10431740;28;20068;-63
2023/01/16 10:10:01;;;;;;;0.57;0.57;;;;;;;4.00;100.00;97963.47;10446690;28;20079;-63
2023/01/16 10:15:24;;;;;;;0.95;0.95;;;;;;;3.97;100.00;97950.53;10463973;28;20037;-63
2023/01/16 10:20:46;;;;;;;0.50;0.50;;;;;;;3.96;100.00;97941.69;10446173;28;20116;-63
2023/01/16 10:26:04;;;;;;;0.60;0.60;;;;;;;4.04;100.00;97939.72;10464367;28;20060;-63
2023/01/16 10:31:20;;;;;;;0.52;0.52;;;;;;;4.10;100.00;97930.78;10448966;28;20037;-63
2023/01/16 10:36:22;;;;;;;0.70;0.70;;;;;;;4.13;100.00;97911.56;10435742;28;20105;-62
2023/01/16 10:52:15;;;;;;;0.80;0.80;;;;;;;4.24;100.00;97900.06;10425365;28;20086;-62
2023/01/16 10:57:16;;;;;;;0.50;0.50;;;;;;;4.27;100.00;97888.88;10462785;28;20086;-62
2023/01/16 11:02:30;;;;;;;0.50;0.50;;;;;;;4.35;100.00;97893.09;10462406;28;20096;-62
2023/01/16 11:07:30;;;;;;;0.57;0.57;;;;;;;4.44;100.00;97889.03;10462897;28;20045;-62
2023/01/16 11:23:18;;;;;;;0.60;0.60;;;;;;;4.60;100.00;97858.88;10446604;28;20405;-62
2023/01/16 11:28:30;;;;;;;0.70;0.70;;;;;;;4.68;100.00;97857.69;10426791;28;20125;-62
2023/01/16 11:33:39;;;;;;;3.58;3.30;;;;;;;4.75;100.00;97850.31;10462064;28;20128;-62
2023/01/16 11:38:42;;;;;;;0.70;0.70;;;;;;;4.84;100.00;97835.50;10427350;28;20071;-63
2023/01/16 11:49:15;;;;;;;0.75;0.75;;;;;;;5.05;100.00;97811.81;10460438;28;20388;-63
2023/01/16 11:54:16;;;;;;;0.60;0.60;;;;;;;5.01;100.00;97802.59;10460752;28;20032;-63
2023/01/16 11:59:31;;;;;;;0.70;0.70;;;;;;;5.02;100.00;97793.53;10443104;28;20041;-63
2023/01/16 12:04:32;;;;;;;0.52;0.52;;;;;;;5.08;100.00;97792.56;10460304;28;20044;-63
2023/01/16 12:09:41;;;;;;;0.40;0.40;;;;;;;5.20;100.00;97790.66;10446234;28;20087;-63
2023/01/16 12:14:45;;;;;;;0.40;0.40;;;;;;;5.44;100.00;97777.94;10442759;28;20032;-63
2023/01/16 12:20:27;;;;;;;0.40;0.40;;;;;;;5.53;100.00;97773.00;10441840;28;20064;-63
2023/01/16 12:25:46;;;;;;;0.63;0.63;;;;;;;5.47;100.00;97764.06;10402629;28;20393;-62
2023/01/16 12:31:21;;;;;;;0.50;0.50;;;;;;;5.48;100.00;97752.25;10459870;28;20029;-63
2023/01/16 12:36:56;;;;;;;0.70;0.70;;;;;;;5.42;100.00;97755.09;10460274;28;20053;-62
2023/01/16 12:48:20;;;;;;;0.60;0.60;;;;;;;4.99;100.00;97757.25;10457644;28;20063;-63
2023/01/16 12:53:53;;;;;;;0.60;0.60;;;;;;;5.06;100.00;97738.34;10456721;28;20033;-64
2023/01/16 12:59:00;;;;;;;0.60;0.60;;;;;;;5.10;100.00;97728.75;10439317;28;20111;-65
2023/01/16 13:04:10;;;;;;;0.52;0.52;;;;;;;5.19;100.00;97721.97;10441447;28;20071;-64
2023/01/16 13:09:19;;;;;;;0.40;0.40;;;;;;;5.26;100.00;97719.94;10460021;28;20041;-64
2023/01/16 13:14:19;;;;;;;0.50;0.50;;;;;;;5.23;100.00;97720.44;10441700;28;20025;-63
2023/01/16 13:19:24;;;;;;;0.43;0.43;;;;;;;5.24;100.00;97708.66;10422995;28;20129;-65
2023/01/16 13:24:29;;;;;;;0.60;0.60;;;;;;;5.15;100.00;97709.28;10423013;28;20125;-63
2023/01/16 13:29:47;;;;;;;0.50;0.50;;;;;;;5.19;100.00;97708.53;10423121;28;20035;-64
2023/01/16 13:34:54;;;;;;;0.60;0.60;;;;;;;5.21;100.00;97703.75;10423015;28;20488;-64
2023/01/16 13:40:18;;;;;;;0.60;0.60;;;;;;;5.28;100.00;97708.97;10438629;28;20496;-63
2023/01/16 13:45:49;;;;;;;0.50;0.50;;;;;;;5.28;100.00;97707.09;10440111;28;20037;-64
2023/01/16 13:51:01;;;;;;;0.50;0.50;;;;;;;5.35;100.00;97701.59;10445448;28;20029;-64
2023/01/16 13:56:05;;;;;;;0.50;0.50;;;;;;;5.49;100.00;97689.50;10458886;28;20055;-64
2023/01/16 14:01:06;;;;;;;0.40;0.40;;;;;;;5.55;100.00;97693.06;10455906;28;20036;-63
2023/01/16 14:06:09;;;;;;;4.55;4.07;;;;;;;5.58;100.00;97690.72;10438240;28;20048;-63
2023/01/16 14:11:22;;;;;;;0.40;0.40;;;;;;;5.58;100.00;97692.56;10455069;28;20048;-64
2023/01/16 14:16:31;;;;;;;0.50;0.50;;;;;;;5.45;100.00;97684.84;10438625;28;20033;-64
2023/01/16 14:21:38;;;;;;;0.90;0.90;;;;;;;5.45;100.00;97696.38;10421676;28;20029;-65
2023/01/16 14:26:42;;;;;;;;;;;;;;;5.50;100.00;97695.66;10455920;28;20174;-63
2023/01/16 14:31:51;;;;;;;5.05;4.65;;;;;;;5.52;100.00;97691.69;10455297;28;20050;-64
2023/01/16 14:36:53;;;;;;;5.65;5.10;;;;;;;5.43;100.00;97695.03;10436997;28;20076;-63
2023/01/16 14:57:59;;;;;;;3.28;2.65;;;;;;;5.03;100.00;97717.38;10462377;28;20461;-67
2023/01/16 15:03:12;;;;;;;2.33;2.13;;;;;;;5.00;100.00;97726.72;10444765;28;20029;-63
2023/01/16 15:08:12;;;;;;;1.80;1.70;;;;;;;4.94;100.00;97726.84;10446792;28;20029;-63
2023/01/16 15:13:26;;;;;;;5.95;3.17;;;;;;;4.96;100.00;97725.56;10445794;28;20360;-63
2023/01/16 15:23:45;;;;;;;3.33;2.55;;;;;;;4.94;100.00;97734.91;10438502;28;20037;-64
2023/01/16 15:29:07;;;;;;;1.67;1.58;;;;;;;4.87;100.00;97727.81;10444070;28;20453;-64
2023/01/16 15:34:18;;;;;;;3.83;1.33;;;;;;;4.73;100.00;97745.22;10461556;28;20032;-64
2023/01/16 15:39:28;;;;;;;7.88;2.08;;;;;;;4.64;100.00;97746.66;10460528;28;20041;-64
2023/01/16 15:50:12;;;;;;;1.35;1.25;;;;;;;4.26;100.00;97765.91;10431664;28;20033;-65
2023/01/16 15:55:22;;;;;;;0.80;0.80;;;;;;;4.14;100.00;97774.75;10422426;28;20095;-63
2023/01/16 16:00:24;;;;;;;1.33;1.23;;;;;;;4.09;100.00;97779.19;10441693;28;20044;-63
2023/01/16 16:05:24;;;;;;;10.50;2.58;;;;;;;4.02;100.00;97782.00;10466930;28;20029;-64
2023/01/16 16:21:17;;;;;;;5.50;1.48;;;;;;;4.08;100.00;97804.31;10459826;28;20065;-63
2023/01/16 16:26:19;;;;;;;1.10;1.10;;;;;;;4.12;100.00;97810.88;10425279;28;20060;-63
2023/01/16 16:31:25;;;;;;;1.42;1.23;;;;;;;4.19;100.00;97814.25;10459200;28;20035;-63
2023/01/16 16:36:26;;;;;;;1.17;1.17;;;;;;;4.17;100.00;97819.00;10460116;28;20045;-64
2023/01/16 16:47:08;;;;;;;10.13;1.80;;;;;;;4.01;100.00;97827.72;10444124;28;20037;-64
2023/01/16 16:52:22;;;;;;;5.22;2.38;;;;;;;3.97;100.00;97857.63;10425335;28;20032;-64
2023/01/16 16:57:23;;;;;;;1.10;1.10;;;;;;;4.01;100.00;97865.22;10425598;28;20381;-64
2023/01/16 17:02:23;;;;;;;1.52;1.02;;;;;;;3.99;100.00;97875.31;10471759;28;20124;-64
2023/01/16 17:07:24;;;;;;;1.23;1.23;;;;;;;3.90;100.00;97881.03;10423310;28;20041;-64
2023/01/16 17:12:24;;;;;;;5.85;2.00;;;;;;;3.85;100.00;97902.28;10424717;28;20029;-64
2023/01/16 17:17:24;;;;;;;2.38;1.88;;;;;;;3.85;100.00;97902.28;10457546;28;20388;-63
2023/01/16 17:22:25;;;;;;;1.67;1.58;;;;;;;3.88;100.00;97922.44;10458212;28;20044;-64
2023/01/16 17:27:25;;;;;;;7.38;1.30;;;;;;;3.89;100.00;97916.88;10459191;28;20067;-64
2023/01/16 17:32:30;;;;;;;4.50;1.40;;;;;;;3.89;100.00;97929.41;10448318;28;20056;-63
2023/01/16 17:37:31;;;;;;;2.38;1.70;;;;;;;3.90;100.00;97936.44;10438550;28;20057;-64
2023/01/16 17:47:51;;;;;;;4.38;1.92;;;;;;;3.91;100.00;97936.19;10456269;28;20087;-64
2023/01/16 17:52:52;;;;;;;2.45;1.40;;;;;;;3.96;100.00;97944.38;10456927;28;20064;-63
2023/01/16 17:57:53;;;;;;;1.20;1.08;;;;;;;4.01;100.00;97948.22;10455858;28;20033;-64
2023/01/16 18:02:53;;;;;;;3.33;1.40;;;;;;;4.05;100.00;97949.38;10455809;28;20037;-64
2023/01/16 18:07:54;;;;;;;9.40;1.67;;;;;;;4.08;100.00;97954.28;10456388;28;20037;-63
2023/01/16 18:18:14;;;;;;;1.83;1.73;;;;;;;4.18;100.00;97965.28;10458298;28;20083;-64
2023/01/16 18:23:17;;;;;;;7.20;1.42;;;;;;;4.21;100.00;97978.19;10465739;28;20032;-64
2023/01/16 18:28:17;;;;;;;1.88;1.50;;;;;;;4.25;100.00;97986.59;10475006;28;20036;-63
2023/01/16 18:33:19;;;;;;;1.90;1.50;;;;;;;4.22;100.00;97998.59;10453091;28;20029;-63
2023/01/16 19:04:58;;;;;;;4.93;2.13;;;;;;;3.78;100.00;98045.28;10462938;28;20464;-63
2023/01/16 19:10:00;;;;;;;7.97;2.28;;;;;;;3.69;100.00;98047.44;10428651;28;20095;-63
2023/01/16 19:15:01;;;;;;;2.38;1.38;;;;;;;3.73;100.00;98048.63;10462447;28;20063;-63
2023/01/16 19:20:03;;;;;;;9.73;2.78;;;;;;;3.78;100.00;98045.28;10444432;28;20033;-63
2023/01/16 19:25:03;;;;;;;6.65;2.33;;;;;;;3.80;100.00;98044.03;10463323;28;20025;-63
2023/01/16 19:30:05;;;;;;;4.78;1.85;;;;;;;3.81;100.00;98060.91;10461832;28;20033;-63
2023/01/16 19:35:05;;;;;;;4.63;1.52;;;;;;;3.81;100.00;98067.06;10444161;28;20453;-63
2023/01/16 19:40:06;;;;;;;12.27;2.13;;;;;;;3.80;100.00;98069.97;10470348;28;20080;-63
2023/01/16 19:50:27;;;;;;;9.35;2.00;;;;;;;3.76;100.00;98085.66;10460823;28;20040;-64
2023/01/16 19:55:27;;;;;;;2.67;1.92;;;;;;;3.79;100.00;98077.19;10461923;28;20029;-64
2023/01/16 20:00:28;;;;;;;2.10;1.83;;;;;;;3.84;100.00;98071.97;10461244;28;20032;-64
2023/01/16 20:05:28;;;;;;;3.47;1.48;;;;;;;3.88;100.00;98094.56;10461023;28;20365;-66
2023/01/16 20:10:28;;;;;;;3.15;1.23;;;;;;;3.87;100.00;98100.97;10441637;28;20116;-65
2023/01/16 20:15:29;;;;;;;8.32;1.63;;;;;;;3.79;100.00;98103.94;10460847;28;20040;-64
2023/01/16 20:20:29;;;;;;;12.73;1.98;;;;;;;3.64;100.00;98108.84;10460898;28;20029;-63
2023/01/16 20:25:30;;;;;;;1.20;1.10;;;;;;;3.56;100.00;98111.81;10442341;28;20561;-63
2023/01/16 20:30:46;;;;;;;11.65;2.05;;;;;;;3.49;100.00;98118.03;10441754;28;20044;-64
2023/01/16 20:35:47;;;;;;;;;;;;;;;3.47;100.00;98135.34;10459815;28;20029;-64
2023/01/16 20:40:47;;;;;;;6.45;2.42;;;;;;;3.55;100.00;98135.06;10443930;28;19928;-66
2023/01/16 20:45:50;;;;;;;5.93;2.00;;;;;;;3.60;100.00;98147.78;10457967;28;20041;-64
2023/01/16 20:50:51;;;;;;;5.40;1.30;;;;;;;3.65;100.00;98154.13;10458127;28;20049;-64
2023/01/16 20:55:51;;;;;;;2.08;1.85;;;;;;;3.64;100.00;98163.19;10440795;28;20028;-64
2023/01/16 21:01:00;;;;;;;4.57;2.53;;;;;;;3.57;100.00;98194.53;10458049;28;20037;-66
2023/01/16 21:06:00;;;;;;;6.82;2.05;;;;;;;3.65;100.00;98183.56;10440851;28;20119;-64
2023/01/16 21:14:09;;;;;;;6.38;2.28;;;;;;;3.69;100.00;98205.34;10458620;28;20124;-63
2023/01/16 21:21:49;;;;;;;20.88;4.07;;;;;;;3.66;100.00;98237.88;10456946;28;20046;-65
2023/01/16 21:26:49;;;;;;;11.43;2.38;;;;;;;3.62;100.00;98244.72;10440682;28;20032;-67
2023/01/16 21:31:50;;;;;;;5.22;3.90;;;;;;;3.50;100.00;98258.78;10457779;28;20037;-63
2023/01/16 21:36:50;;;;;;;3.13;1.67;;;;;;;3.44;100.00;98258.84;10442111;28;20088;-65
2023/01/16 21:47:11;;;;;;;4.95;2.35;;;;;;;3.45;100.00;98253.28;10454577;28;20473;-63
2023/01/16 21:52:11;;;;;;;5.53;2.20;;;;;;;3.44;100.00;98277.56;10456140;28;20425;-64
2023/01/16 21:57:12;;;;;;;9.88;2.50;;;;;;;3.40;100.00;98289.75;10453750;28;20033;-63
2023/01/16 22:02:13;;;;;;;2.33;1.20;;;;;;;3.30;100.00;98284.84;10437927;28;20075;-63
2023/01/16 22:07:13;;;;;;;10.95;2.72;;;;;;;3.34;100.00;98301.28;10438195;28;20112;-63
2023/01/16 22:22:49;;;;;;;6.97;1.70;;;;;;;3.31;100.00;98302.53;10454348;28;20102;-64
2023/01/16 22:27:49;;;;;;;;;;;;;;;3.32;100.00;98322.06;10454658;28;20052;-62
2023/01/16 22:32:51;;;;;;;5.32;1.85;;;;;;;3.23;100.00;98318.84;10436086;28;19923;-63
2023/01/16 22:37:52;;;;;;;3.30;1.83;;;;;;;3.12;100.00;98365.78;10411256;28;1233295;-64
2023/01/16 22:42:53;;;;;;;5.95;2.40;;;;;;;2.63;100.00;98369.03;10455723;28;20041;-65
2023/01/16 22:47:54;;;;;;;7.88;2.58;;;;;;;2.50;100.00;98375.22;10437979;28;20048;-64
2023/01/16 22:52:54;;;;;;;9.05;2.35;;;;;;;2.55;100.00;98391.41;10455596;28;20033;-63
2023/01/16 22:57:55;;;;;;;8.07;2.67;;;;;;;2.59;100.00;98383.84;10456566;28;20044;-64
2023/01/16 23:02:55;;;;;;;4.15;1.83;;;;;;;2.56;100.00;98396.56;10460209;28;20120;-64
2023/01/16 23:07:56;;;;;;;4.32;2.05;;;;;;;2.58;100.00;98409.72;10477641;28;20041;-64
2023/01/16 23:12:56;;;;;;;13.77;2.42;;;;;;;2.58;100.00;98403.53;10468799;28;20029;-63
2023/01/16 23:17:57;;;;;;;3.63;1.30;;;;;;;2.52;100.00;98415.88;10462554;28;20044;-63
2023/01/16 23:22:57;;;;;;;6.47;1.48;;;;;;;2.56;100.00;98409.94;10443718;28;20120;-62
2023/01/16 23:27:58;;;;;;;3.40;2.17;;;;;;;2.53;100.00;98417.53;10462134;28;20365;-63
2023/01/16 23:32:58;;;;;;;6.63;2.25;;;;;;;2.55;100.00;98432.34;10444073;28;20028;-63
2023/01/16 23:38:00;;;;;;;7.25;1.88;;;;;;;2.63;100.00;98450.00;10443288;28;20057;-62
2023/01/16 23:48:19;;;;;;;8.38;2.13;;;;;;;2.65;100.00;98463.97;10461341;28;20033;-64
2023/01/16 23:53:19;;;;;;;6.65;2.25;;;;;;;2.53;100.00;98463.78;10465493;28;20033;-63
2023/01/16 23:58:20;;;;;;;4.25;2.10;;;;;;;2.44;100.00;98456.97;10464311;28;20103;-64
